메인 페이지
METAR-TAF:

METAR-TAF

공항 :

은자메나, 차드

위도: 12-08N, 경도: 015-02E, 고도: 295m

현재 날씨관측

예보는 1 시간 7분 전, 22:00시(UTC)에 발표되었습니다.
북서4kt
온도 34°C
습도 30%
기압 1006 hPa
시정: 8000m

METAR: FTTJ 312200Z 31004KT 8000 NSC 34/14 Q1006 NOSIG

시각: 00:07 (23:07 UTC)

예보

예보는 6 시간 7분 전, 17:00시(UTC)에 발표되었습니다.
예보 대상 시간: 31일 18시부터 01일 24시까지 (UTC)
여러 방향의 바람 2kt
시정: 6000m
일시적
01일 07시부터 01일 15시까지 (UTC)
12kt

TAF: FTTJ 311700Z 3118/0124 VRB02KT 6000 NSC TEMPO 0107/0115 08012KT

4,000개 이상의 공항 관측 자료 및 예보 (METAR 및 TAF 보고).

지도상에서 검색 가능한 기상관측소가 노란 점과 빨간 점으로 표시되어 있습니다.

기상관측소 명을 보려면 표시 위로 마우스를 이동하세요.

날씨 관측과 예보를 보려면 클릭하세요.

지도 변경 : 확대하려면 엑스 표시가 있는 녹색 버튼, 축소하려면 빼기 표시가 있는 녹색 버튼, 다음 페이지의 지도를 보려면 녹색 화살표를 클릭하세요.


METAR-TAF: